Adrian, Ohio
Current Conditions -  °F | °C
As of 9:53 PM on Sunday 23 Nov 2014 (Local Time) from KFDY Reporting Station
Light Rain Light Rain  
Wind Chill: 54°   Ceiling: 1500
Heat Index: 54°   Visibility: 6mi
Dew Point: 50°   Wind: 22mph
Humidity: 86%   Direction: 150°SSE
Pressure: 29.32"   Gusts: 32mph
Location:  41°N, 83.32°W
Report Text: KFDY 240253Z AUTO 15019G28KT 6SM -RA BR BKN015 OVC045 12/10 A2932 RMK AO2 PK WND 15031/0218 SLP925 P0007 60015 T01220100 58062
Loading
Personal Weather Stations






























Interactive Weather Map New forecast layout! Learn more

10-Day Weather Forecast

Advertisements
Track Severe Weather on mobile